createdAt,value
2018-08-13T00:02:09.007Z,12.90
2018-08-13T00:04:40.256Z,12.90
2018-08-13T00:07:10.159Z,12.80
2018-08-13T00:09:42.871Z,12.80
2018-08-13T00:12:16.784Z,12.80
2018-08-13T00:14:46.243Z,12.80
2018-08-13T00:17:16.732Z,12.80
2018-08-13T00:19:47.939Z,12.70
2018-08-13T00:22:19.990Z,12.70
2018-08-13T00:24:51.871Z,12.70
2018-08-13T00:27:23.099Z,12.70
2018-08-13T00:29:54.874Z,12.70
2018-08-13T00:32:29.979Z,12.60
2018-08-13T00:34:59.844Z,12.60
2018-08-13T00:40:04.851Z,12.50
2018-08-13T00:42:35.363Z,12.40
2018-08-13T00:45:07.046Z,12.30
2018-08-13T00:47:38.787Z,12.20
2018-08-13T00:50:12.313Z,12.20
2018-08-13T00:52:50.828Z,12.10
2018-08-13T00:55:21.851Z,12.00
2018-08-13T00:57:53.048Z,11.90
2018-08-13T01:00:24.684Z,11.90
2018-08-13T01:02:55.946Z,11.90
2018-08-13T01:05:26.710Z,11.80
2018-08-13T01:07:58.264Z,11.80
2018-08-13T01:10:28.646Z,11.80
2018-08-13T01:13:00.354Z,11.80
2018-08-13T01:15:31.129Z,11.70
2018-08-13T01:18:01.722Z,11.80
2018-08-13T01:20:32.120Z,11.80
2018-08-13T01:23:04.011Z,11.70
2018-08-13T01:25:35.685Z,11.70
2018-08-13T01:28:06.207Z,11.70
2018-08-13T01:30:36.775Z,11.70
2018-08-13T01:33:06.997Z,11.70
2018-08-13T01:35:39.179Z,11.70
2018-08-13T01:38:08.931Z,11.60
2018-08-13T01:40:40.663Z,11.60
2018-08-13T01:43:11.755Z,11.60
2018-08-13T01:45:42.944Z,11.60
2018-08-13T01:48:14.167Z,11.60
2018-08-13T01:50:45.823Z,11.50
2018-08-13T01:53:29.256Z,11.50
2018-08-13T01:56:00.016Z,11.50
2018-08-13T01:58:30.281Z,11.50
2018-08-13T02:01:01.849Z,11.50
2018-08-13T02:03:31.779Z,11.50
2018-08-13T02:06:03.879Z,11.40
2018-08-13T02:08:34.611Z,11.40
2018-08-13T02:11:04.883Z,11.40
2018-08-13T02:13:47.063Z,11.30
2018-08-13T02:16:17.110Z,11.30
2018-08-13T02:18:47.470Z,11.20
2018-08-13T02:21:18.551Z,11.20
2018-08-13T02:23:49.602Z,11.20
2018-08-13T02:26:19.898Z,11.20
2018-08-13T02:28:50.379Z,11.10
2018-08-13T02:31:21.850Z,11.10
2018-08-13T02:33:51.984Z,11.10
2018-08-13T02:36:22.457Z,11.10
2018-08-13T02:38:53.604Z,11.20
2018-08-13T02:41:24.463Z,11.20
2018-08-13T02:43:55.686Z,11.10
2018-08-13T02:46:28.723Z,11.10
2018-08-13T02:48:58.680Z,11.00
2018-08-13T02:51:30.344Z,11.00
2018-08-13T02:54:06.283Z,10.90
2018-08-13T02:56:35.948Z,10.90
2018-08-13T02:59:04.803Z,11.00
2018-08-13T03:01:36.054Z,11.00
2018-08-13T03:04:06.646Z,11.00
2018-08-13T03:06:38.256Z,11.00
2018-08-13T03:09:11.744Z,11.10
2018-08-13T03:11:42.707Z,11.00
2018-08-13T03:14:12.635Z,11.10
2018-08-13T03:16:42.879Z,11.10
2018-08-13T03:19:13.478Z,11.10
2018-08-13T03:21:44.719Z,11.10
2018-08-13T03:24:15.111Z,11.10
2018-08-13T03:26:45.942Z,11.10
2018-08-13T03:29:17.855Z,11.00
2018-08-13T03:31:49.575Z,11.00
2018-08-13T03:34:24.220Z,11.00
2018-08-13T03:36:55.786Z,11.10
2018-08-13T03:39:26.856Z,11.00
2018-08-13T03:41:56.843Z,11.10
2018-08-13T03:44:27.562Z,11.20
2018-08-13T03:46:59.594Z,11.20
2018-08-13T03:49:30.079Z,11.30
2018-08-13T03:51:59.750Z,11.30
2018-08-13T03:54:31.526Z,11.30
2018-08-13T03:57:02.623Z,11.30
2018-08-13T03:59:32.467Z,11.30
2018-08-13T04:02:03.752Z,11.30
2018-08-13T04:04:35.526Z,11.40
2018-08-13T04:07:06.723Z,11.50
2018-08-13T04:09:37.715Z,11.60
2018-08-13T04:12:08.815Z,11.60
2018-08-13T04:14:47.623Z,11.70
2018-08-13T04:17:17.639Z,11.80
2018-08-13T04:19:46.883Z,11.90
2018-08-13T04:22:20.896Z,11.90
2018-08-13T04:24:51.605Z,12.10
2018-08-13T04:27:22.683Z,12.10
2018-08-13T04:29:53.575Z,12.20
2018-08-13T04:32:24.295Z,12.30
2018-08-13T04:34:57.583Z,12.30
2018-08-13T04:37:28.564Z,12.40
2018-08-13T04:39:58.825Z,12.50
2018-08-13T04:42:29.452Z,12.50
2018-08-13T04:45:00.726Z,12.60
2018-08-13T04:47:31.632Z,12.70
2018-08-13T04:50:02.575Z,12.80
2018-08-13T04:52:32.778Z,12.80
2018-08-13T04:55:08.267Z,12.90
2018-08-13T04:57:40.014Z,12.90
2018-08-13T05:00:10.903Z,13.00
2018-08-13T05:02:40.323Z,13.10
2018-08-13T05:05:10.762Z,13.20
2018-08-13T05:07:40.751Z,13.20
2018-08-13T05:10:12.435Z,13.30
2018-08-13T05:12:44.297Z,13.40
2018-08-13T05:15:13.867Z,13.40
2018-08-13T05:17:45.414Z,13.40
2018-08-13T05:20:15.315Z,13.50
2018-08-13T05:22:47.167Z,13.60
2018-08-13T05:25:18.501Z,13.70
2018-08-13T05:27:48.723Z,13.70
2018-08-13T05:30:19.518Z,13.80
2018-08-13T05:32:51.184Z,13.80
2018-08-13T05:35:22.645Z,13.90
2018-08-13T05:37:52.831Z,14.00
2018-08-13T05:40:21.771Z,14.10
2018-08-13T05:42:51.192Z,14.00
2018-08-13T05:45:22.487Z,14.10
2018-08-13T05:47:54.087Z,14.10
2018-08-13T05:50:25.169Z,14.10
2018-08-13T05:52:56.428Z,14.20
2018-08-13T05:55:29.584Z,14.20
2018-08-13T05:57:59.538Z,14.20
2018-08-13T06:00:30.356Z,14.20
2018-08-13T06:03:00.927Z,14.30
2018-08-13T06:05:30.640Z,14.30
2018-08-13T06:08:00.838Z,14.30
2018-08-13T06:10:32.339Z,14.40
2018-08-13T06:13:02.678Z,14.40
2018-08-13T06:15:33.630Z,14.40
2018-08-13T06:18:03.789Z,14.50
2018-08-13T06:20:33.783Z,14.50
2018-08-13T06:23:03.330Z,14.60
2018-08-13T06:25:32.624Z,14.60
2018-08-13T06:28:04.138Z,14.70
2018-08-13T06:30:39.203Z,14.80
2018-08-13T06:33:09.666Z,14.90
2018-08-13T06:35:46.419Z,14.90
2018-08-13T06:38:17.411Z,15.00
2018-08-13T06:40:48.559Z,15.00
2018-08-13T06:43:20.319Z,15.00
2018-08-13T06:45:55.606Z,15.10
2018-08-13T06:48:26.146Z,15.10
2018-08-13T06:50:57.901Z,15.20
2018-08-13T06:53:29.746Z,15.20
2018-08-13T06:55:59.751Z,15.20
2018-08-13T06:58:31.072Z,15.20
2018-08-13T07:01:18.396Z,15.20
2018-08-13T07:03:53.283Z,15.20
2018-08-13T07:06:26.266Z,15.20
2018-08-13T07:08:58.292Z,15.30
2018-08-13T07:11:30.314Z,15.30
2018-08-13T07:14:05.491Z,15.40
2018-08-13T07:16:42.055Z,15.40
2018-08-13T07:19:14.143Z,15.50
2018-08-13T07:21:48.660Z,15.60
2018-08-13T07:24:23.284Z,15.60
2018-08-13T07:26:53.792Z,15.70
2018-08-13T07:29:23.623Z,15.70
2018-08-13T07:31:55.612Z,15.70
2018-08-13T07:34:26.295Z,15.70
2018-08-13T07:37:05.515Z,15.70
2018-08-13T07:39:37.788Z,15.70
2018-08-13T07:42:15.614Z,15.80
2018-08-13T07:44:47.271Z,15.90
2018-08-13T07:47:17.663Z,15.90
2018-08-13T07:49:47.100Z,15.90
2018-08-13T07:52:17.290Z,15.90
2018-08-13T07:54:48.170Z,15.90
2018-08-13T07:57:18.444Z,15.90
2018-08-13T07:59:48.156Z,16.00
2018-08-13T08:02:29.292Z,16.00
2018-08-13T08:05:00.371Z,16.10
2018-08-13T08:07:31.891Z,16.20
2018-08-13T08:10:03.427Z,16.20
2018-08-13T08:12:34.460Z,16.20
2018-08-13T08:15:04.466Z,16.20
2018-08-13T08:17:35.639Z,16.30
2018-08-13T08:20:06.505Z,16.30
2018-08-13T08:22:40.911Z,16.40
2018-08-13T08:25:15.392Z,16.40
2018-08-13T08:27:46.960Z,16.40
2018-08-13T08:30:20.491Z,16.40
2018-08-13T08:32:50.495Z,16.50
2018-08-13T08:35:20.130Z,16.50
2018-08-13T08:37:49.574Z,16.40
2018-08-13T08:40:20.559Z,16.50
2018-08-13T08:42:55.543Z,16.50
2018-08-13T08:45:27.464Z,16.50
2018-08-13T08:47:59.027Z,16.50
2018-08-13T08:50:29.365Z,16.60
2018-08-13T08:52:59.164Z,16.60
2018-08-13T08:55:29.035Z,16.70
2018-08-13T08:57:59.274Z,16.70
2018-08-13T09:00:30.924Z,16.70
2018-08-13T09:03:05.475Z,16.80
2018-08-13T09:05:35.892Z,16.80
2018-08-13T09:08:05.371Z,16.90
2018-08-13T09:10:38.815Z,16.90
2018-08-13T09:13:11.080Z,17.00
2018-08-13T09:15:41.904Z,17.10
2018-08-13T09:18:23.068Z,17.10
2018-08-13T09:21:04.095Z,17.10
2018-08-13T09:23:47.799Z,17.00
2018-08-13T09:26:28.254Z,17.00
2018-08-13T09:29:09.214Z,17.00
2018-08-13T09:32:18.008Z,17.00
2018-08-13T09:35:01.168Z,17.10
2018-08-13T09:37:30.754Z,17.20
2018-08-13T09:40:01.875Z,17.20
2018-08-13T09:42:31.237Z,17.30
2018-08-13T09:45:02.494Z,17.30
2018-08-13T09:47:32.550Z,17.30
2018-08-13T09:50:02.422Z,17.40
2018-08-13T09:52:32.512Z,17.40
2018-08-13T09:55:02.361Z,17.40
2018-08-13T09:57:32.647Z,17.50
2018-08-13T10:00:03.151Z,17.50
2018-08-13T10:02:32.315Z,17.40
2018-08-13T10:05:02.012Z,17.40
2018-08-13T10:07:31.179Z,17.40
2018-08-13T10:10:01.949Z,17.50
2018-08-13T10:12:33.299Z,17.50
2018-08-13T10:15:08.042Z,17.50
2018-08-13T10:17:37.952Z,17.50
2018-08-13T10:20:22.802Z,17.50
2018-08-13T10:22:58.889Z,17.50
2018-08-13T10:25:28.995Z,17.50
2018-08-13T10:50:35.893Z,17.80
2018-08-13T13:23:19.832Z,19.30
2018-08-13T13:29:07.275Z,19.30
2018-08-13T16:25:38.344Z,22.00
2018-08-13T16:28:08.605Z,23.50
2018-08-13T16:30:38.685Z,24.80
2018-08-13T16:33:08.803Z,25.70
2018-08-13T16:38:41.090Z,26.50
2018-08-13T16:41:15.317Z,27.20
2018-08-13T16:43:46.237Z,27.30
2018-08-13T16:46:15.771Z,27.20
2018-08-13T16:48:47.307Z,27.10
2018-08-13T16:51:18.109Z,27.30
2018-08-13T16:53:52.424Z,27.40
2018-08-13T16:56:27.098Z,27.50
2018-08-13T17:02:04.232Z,28.20
2018-08-13T17:04:38.027Z,28.40
2018-08-13T17:09:52.896Z,27.80
2018-08-13T17:15:02.037Z,25.40
2018-08-13T17:17:32.756Z,24.10
2018-08-13T17:20:04.304Z,24.00
2018-08-13T17:39:51.701Z,23.00
2018-08-13T17:42:22.499Z,23.40
2018-08-13T17:44:57.809Z,23.50
2018-08-13T17:47:28.431Z,23.10
2018-08-13T17:49:58.224Z,22.40
2018-08-13T17:52:29.040Z,21.80
2018-08-13T17:55:00.375Z,21.20
2018-08-13T17:57:40.019Z,20.70
2018-08-13T18:00:18.860Z,20.30
2018-08-13T18:02:49.278Z,19.80
2018-08-13T18:05:30.118Z,19.50
2018-08-13T18:08:04.758Z,19.10
2018-08-13T21:00:18.687Z,12.40
2018-08-13T21:09:27.398Z,12.20
2018-08-13T21:14:39.884Z,12.10
2018-08-13T21:17:15.492Z,12.10
2018-08-13T21:19:46.573Z,12.10
2018-08-13T21:25:18.734Z,12.00
2018-08-13T21:34:19.759Z,11.90
2018-08-13T21:39:57.677Z,11.80
2018-08-13T21:42:32.419Z,11.70
2018-08-13T21:48:04.421Z,11.70
2018-08-13T21:50:46.564Z,11.60
2018-08-13T21:53:17.997Z,11.60
2018-08-13T21:55:57.588Z,11.70
2018-08-13T21:58:35.750Z,11.60
2018-08-13T22:01:22.236Z,11.50
2018-08-13T22:07:59.688Z,11.50
2018-08-13T22:16:31.960Z,11.30
2018-08-13T22:19:21.871Z,11.30
2018-08-13T22:30:14.122Z,11.20
2018-08-13T22:35:38.501Z,11.00
2018-08-13T22:38:12.821Z,11.00
2018-08-13T22:41:07.687Z,11.00
2018-08-13T22:43:44.187Z,10.90
2018-08-13T22:52:58.378Z,10.90
2018-08-13T22:58:15.332Z,10.80
2018-08-13T23:00:54.368Z,10.80
2018-08-13T23:03:27.809Z,10.80
2018-08-13T23:06:02.827Z,10.70
2018-08-13T23:08:35.307Z,10.70
2018-08-13T23:13:52.083Z,10.60
2018-08-13T23:16:23.520Z,10.60
2018-08-13T23:18:57.299Z,10.60
2018-08-13T23:25:43.508Z,10.50
2018-08-13T23:28:16.339Z,10.50
2018-08-13T23:30:49.029Z,10.50
2018-08-13T23:33:20.360Z,10.40
2018-08-13T23:35:53.689Z,10.40
2018-08-13T23:38:26.133Z,10.40
2018-08-13T23:40:56.911Z,10.40
2018-08-13T23:43:32.285Z,10.30
2018-08-13T23:46:03.767Z,10.30
2018-08-13T23:48:35.641Z,10.30
2018-08-13T23:51:05.760Z,10.30
2018-08-13T23:53:38.722Z,10.30
2018-08-13T23:56:09.769Z,10.30
2018-08-13T23:58:44.759Z,10.30
